createdAt,value
2022-08-05T00:00:50.026Z,23.81
2022-08-05T00:01:49.049Z,23.84
2022-08-05T00:02:50.982Z,23.89
2022-08-05T00:03:47.864Z,23.95
2022-08-05T00:04:47.896Z,23.99
2022-08-05T00:06:05.409Z,24.05
2022-08-05T00:06:51.793Z,24.10
2022-08-05T00:07:59.717Z,24.13
2022-08-05T00:08:47.842Z,24.12
2022-08-05T00:09:47.878Z,23.97
2022-08-05T00:10:47.877Z,23.70
2022-08-05T00:11:49.469Z,23.40
2022-08-05T00:12:56.189Z,23.08
2022-08-05T00:13:52.865Z,22.77
2022-08-05T00:14:47.867Z,22.51
2022-08-05T00:15:55.069Z,22.18
2022-08-05T00:16:52.712Z,21.97
2022-08-05T00:17:47.877Z,21.83
2022-08-05T00:18:48.204Z,21.66
2022-08-05T00:20:02.685Z,21.57
2022-08-05T00:20:47.868Z,21.50
2022-08-05T00:21:47.875Z,21.45
2022-08-05T00:22:59.631Z,21.38
2022-08-05T00:23:53.531Z,21.31
2022-08-05T00:24:47.879Z,21.21
2022-08-05T00:25:47.874Z,21.18
2022-08-05T00:26:51.868Z,21.13
2022-08-05T00:27:47.873Z,21.11
2022-08-05T00:28:49.353Z,21.05
2022-08-05T00:29:47.885Z,20.96
2022-08-05T00:30:47.892Z,20.92
2022-08-05T00:31:53.986Z,20.86
2022-08-05T00:32:47.883Z,20.81
2022-08-05T00:34:54.486Z,20.79
2022-08-05T00:35:05.476Z,20.75
2022-08-05T00:36:16.095Z,20.77
2022-08-05T00:37:10.347Z,20.79
2022-08-05T00:37:52.310Z,20.80
2022-08-05T00:38:47.872Z,20.85
2022-08-05T00:39:57.962Z,20.77
2022-08-05T00:40:53.146Z,20.70
2022-08-05T00:41:55.305Z,20.69
2022-08-05T00:42:48.210Z,20.71
2022-08-05T00:43:49.943Z,20.70
2022-08-05T00:44:47.901Z,20.70
2022-08-05T00:45:47.891Z,20.72
2022-08-05T00:46:47.891Z,20.79
2022-08-05T00:47:56.020Z,20.95
2022-08-05T00:48:51.496Z,20.97
2022-08-05T00:49:51.870Z,20.93
2022-08-05T00:50:47.896Z,20.94
2022-08-05T00:51:50.994Z,20.93
2022-08-05T00:52:47.900Z,20.89
2022-08-05T00:54:02.761Z,20.82
2022-08-05T00:54:47.918Z,20.80
2022-08-05T00:55:47.922Z,20.83
2022-08-05T00:56:51.519Z,20.85
2022-08-05T00:57:57.906Z,20.89
2022-08-05T00:58:47.937Z,20.99
2022-08-05T00:59:47.931Z,21.03
2022-08-05T01:00:50.215Z,21.06
2022-08-05T01:01:48.638Z,21.06
2022-08-05T01:02:47.912Z,20.97
2022-08-05T01:03:49.897Z,20.89
2022-08-05T01:04:50.443Z,20.80
2022-08-05T01:05:47.928Z,20.78
2022-08-05T01:06:48.831Z,20.75
2022-08-05T01:08:29.835Z,20.75
2022-08-05T01:08:47.929Z,20.75
2022-08-05T01:09:55.783Z,20.78
2022-08-05T01:10:52.531Z,20.85
2022-08-05T01:11:47.936Z,20.94
2022-08-05T01:13:00.422Z,20.91
2022-08-05T01:13:57.474Z,20.87
2022-08-05T01:14:47.950Z,20.87
2022-08-05T01:15:48.095Z,20.83
2022-08-05T01:16:47.940Z,20.80
2022-08-05T01:17:53.534Z,20.73
2022-08-05T01:18:56.214Z,20.69
2022-08-05T01:20:02.368Z,20.69
2022-08-05T01:20:47.950Z,20.67
2022-08-05T01:21:50.490Z,20.64
2022-08-05T01:22:47.936Z,20.61
2022-08-05T01:23:53.221Z,20.59
2022-08-05T01:24:47.951Z,20.59
2022-08-05T01:25:53.141Z,20.60
2022-08-05T01:26:48.007Z,20.61
2022-08-05T01:27:50.849Z,20.63
2022-08-05T01:28:47.956Z,20.66
2022-08-05T01:29:47.982Z,20.71
2022-08-05T01:30:53.702Z,20.73
2022-08-05T01:31:47.972Z,20.72
2022-08-05T01:32:47.977Z,20.73
2022-08-05T01:33:48.929Z,20.74
2022-08-05T01:34:47.988Z,20.76
2022-08-05T01:35:51.873Z,20.84
2022-08-05T01:36:47.964Z,20.88
2022-08-05T01:37:47.973Z,20.88
2022-08-05T01:38:48.589Z,20.86
2022-08-05T01:39:48.141Z,20.85
2022-08-05T01:40:47.983Z,20.81
2022-08-05T01:41:47.978Z,20.78
2022-08-05T01:42:47.980Z,20.79
2022-08-05T01:43:48.204Z,20.73
2022-08-05T01:44:54.092Z,20.70
2022-08-05T01:45:47.989Z,20.68
2022-08-05T01:46:47.977Z,20.66
2022-08-05T01:47:47.998Z,20.70
2022-08-05T01:48:49.561Z,20.76
2022-08-05T01:50:00.553Z,20.78
2022-08-05T01:50:51.342Z,20.79
2022-08-05T01:51:51.034Z,20.79
2022-08-05T01:52:49.608Z,20.76
2022-08-05T01:53:57.161Z,20.77
2022-08-05T01:54:48.008Z,20.74
2022-08-05T01:55:48.018Z,20.75
2022-08-05T01:58:10.035Z,20.74
2022-08-05T01:58:12.557Z,20.73
2022-08-05T01:58:48.288Z,20.79
2022-08-05T01:59:48.050Z,20.82
2022-08-05T02:00:48.016Z,20.78
2022-08-05T02:01:48.068Z,20.78
2022-08-05T02:02:53.708Z,20.76
2022-08-05T02:03:48.033Z,20.72
2022-08-05T02:04:49.619Z,20.68
2022-08-05T02:05:48.285Z,20.66
2022-08-05T02:06:48.055Z,20.65
2022-08-05T02:08:00.382Z,20.64
2022-08-05T02:08:58.576Z,20.64
2022-08-05T02:09:48.025Z,20.62
2022-08-05T02:10:47.999Z,20.61
2022-08-05T02:11:52.544Z,20.56
2022-08-05T02:12:51.023Z,20.49
2022-08-05T02:13:53.262Z,20.45
2022-08-05T02:14:48.061Z,20.41
2022-08-05T02:15:48.039Z,20.39
2022-08-05T02:16:52.784Z,20.40
2022-08-05T02:18:32.102Z,20.40
2022-08-05T02:18:48.017Z,20.36
2022-08-05T02:19:48.043Z,20.32
2022-08-05T02:20:48.028Z,20.32
2022-08-05T02:21:49.152Z,20.33
2022-08-05T02:22:48.080Z,20.31
2022-08-05T02:23:48.500Z,20.30
2022-08-05T02:24:48.055Z,20.26
2022-08-05T02:25:49.344Z,20.26
2022-08-05T02:26:54.702Z,20.24
2022-08-05T02:27:59.113Z,20.24
2022-08-05T02:28:48.043Z,20.26
2022-08-05T02:29:59.509Z,20.29
2022-08-05T02:30:54.118Z,20.29
2022-08-05T02:31:48.078Z,20.28
2022-08-05T02:32:48.055Z,20.32
2022-08-05T02:33:48.416Z,20.35
2022-08-05T02:34:54.964Z,20.38
2022-08-05T02:35:57.509Z,20.44
2022-08-05T02:36:48.028Z,20.48
2022-08-05T02:37:53.923Z,20.47
2022-08-05T02:38:53.277Z,20.46
2022-08-05T02:39:48.070Z,20.49
2022-08-05T02:40:48.083Z,20.52
2022-08-05T02:42:00.475Z,20.54
2022-08-05T02:42:53.062Z,20.54
2022-08-05T02:44:02.694Z,20.56
2022-08-05T02:44:48.073Z,20.57
2022-08-05T02:45:51.937Z,20.60
2022-08-05T02:46:59.989Z,20.62
2022-08-05T02:48:07.341Z,20.63
2022-08-05T02:48:48.069Z,20.64
2022-08-05T02:49:48.085Z,20.64
2022-08-05T02:50:48.489Z,20.64
2022-08-05T02:52:02.825Z,20.66
2022-08-05T02:52:48.062Z,20.67
2022-08-05T02:53:48.093Z,20.69
2022-08-05T02:54:50.682Z,20.66
2022-08-05T02:55:53.849Z,20.67
2022-08-05T02:56:48.053Z,20.65
2022-08-05T02:58:10.789Z,20.65
2022-08-05T02:58:51.467Z,20.66
2022-08-05T02:59:50.606Z,20.66
2022-08-05T03:00:48.085Z,20.66
2022-08-05T03:01:48.145Z,20.65
2022-08-05T03:02:48.069Z,20.64
2022-08-05T03:04:03.195Z,20.59
2022-08-05T03:04:48.088Z,20.58
2022-08-05T03:06:53.943Z,20.58
2022-08-05T03:06:54.851Z,20.58
2022-08-05T03:08:06.828Z,20.59
2022-08-05T03:08:48.096Z,20.58
2022-08-05T03:09:51.705Z,20.59
2022-08-05T03:11:41.102Z,20.62
2022-08-05T03:11:55.165Z,20.61
2022-08-05T03:12:48.085Z,20.62
2022-08-05T03:13:52.082Z,20.61
2022-08-05T03:14:48.238Z,20.64
2022-08-05T03:15:48.103Z,20.66
2022-08-05T03:16:48.085Z,20.66
2022-08-05T03:17:48.105Z,20.68
2022-08-05T03:18:48.114Z,20.69
2022-08-05T03:19:48.106Z,20.70
2022-08-05T03:20:48.647Z,20.72
2022-08-05T03:21:49.296Z,20.72
2022-08-05T03:22:50.077Z,20.72
2022-08-05T03:23:48.120Z,20.73
2022-08-05T03:24:51.021Z,20.72
2022-08-05T03:26:05.021Z,20.71
2022-08-05T03:26:49.280Z,20.69
2022-08-05T03:27:59.000Z,20.67
2022-08-05T03:28:48.124Z,20.66
2022-08-05T03:30:07.518Z,20.62
2022-08-05T03:30:48.122Z,20.58
2022-08-05T03:31:56.488Z,20.58
2022-08-05T03:32:48.115Z,20.55
2022-08-05T03:33:53.012Z,20.52
2022-08-05T03:34:50.537Z,20.52
2022-08-05T03:35:48.151Z,20.52
2022-08-05T03:36:48.137Z,20.50
2022-08-05T03:37:48.122Z,20.48
2022-08-05T03:38:53.463Z,20.45
2022-08-05T03:39:58.966Z,20.45
2022-08-05T03:40:50.100Z,20.45
2022-08-05T03:41:50.238Z,20.45
2022-08-05T03:42:52.102Z,20.47
2022-08-05T03:44:09.406Z,20.46
2022-08-05T03:44:49.886Z,20.46
2022-08-05T03:45:57.416Z,20.47
2022-08-05T03:46:48.190Z,20.47
2022-08-05T03:47:49.358Z,20.48
2022-08-05T03:48:48.158Z,20.45
2022-08-05T03:49:51.628Z,20.43
2022-08-05T03:50:48.160Z,20.43
2022-08-05T03:52:37.397Z,20.44
2022-08-05T03:55:06.890Z,20.41
2022-08-05T03:55:34.769Z,20.42
2022-08-05T03:55:53.358Z,20.41
2022-08-05T03:56:01.680Z,20.40
2022-08-05T03:56:48.162Z,20.41
2022-08-05T03:57:48.522Z,20.41
2022-08-05T03:58:48.152Z,20.41
2022-08-05T03:59:54.889Z,20.39
2022-08-05T04:00:51.428Z,20.34
2022-08-05T04:01:48.506Z,20.34
2022-08-05T04:02:57.708Z,20.32
2022-08-05T04:04:05.423Z,20.34
2022-08-05T04:04:48.182Z,20.32
2022-08-05T04:05:48.181Z,20.30
2022-08-05T04:06:51.397Z,20.31
2022-08-05T04:07:58.323Z,20.33
2022-08-05T04:08:48.613Z,20.32
2022-08-05T04:09:53.570Z,20.33
2022-08-05T04:10:48.185Z,20.36
2022-08-05T04:11:52.615Z,20.34
2022-08-05T04:12:48.197Z,20.35
2022-08-05T04:13:49.661Z,20.39
2022-08-05T04:14:48.198Z,20.36
2022-08-05T04:16:02.858Z,20.36
2022-08-05T04:16:48.190Z,20.36
2022-08-05T04:17:56.308Z,20.38
2022-08-05T04:18:48.192Z,20.39
2022-08-05T04:19:54.468Z,20.39
2022-08-05T04:20:48.196Z,20.40
2022-08-05T04:22:10.080Z,20.39
2022-08-05T04:22:48.215Z,20.35
2022-08-05T04:24:05.395Z,20.34
2022-08-05T04:24:52.845Z,20.37
2022-08-05T04:26:00.957Z,20.35
2022-08-05T04:26:48.198Z,20.34
2022-08-05T04:27:57.474Z,20.36
2022-08-05T04:28:51.263Z,20.38
2022-08-05T04:29:48.395Z,20.43
2022-08-05T04:30:48.208Z,20.44
2022-08-05T04:31:48.466Z,20.43
2022-08-05T04:32:48.199Z,20.44
2022-08-05T04:34:19.302Z,20.44
2022-08-05T04:34:48.203Z,20.42
2022-08-05T04:36:15.701Z,20.43
2022-08-05T04:36:50.275Z,20.42
2022-08-05T04:38:01.169Z,20.44
2022-08-05T04:38:51.041Z,20.45
2022-08-05T04:39:52.848Z,20.46
2022-08-05T04:40:50.905Z,20.47
2022-08-05T04:41:48.494Z,20.48
2022-08-05T04:42:48.236Z,20.47
2022-08-05T04:43:52.176Z,20.47
2022-08-05T04:44:48.284Z,20.46
2022-08-05T04:45:55.042Z,20.47
2022-08-05T04:46:48.523Z,20.47
2022-08-05T04:47:48.264Z,20.44
2022-08-05T04:48:48.249Z,20.40
2022-08-05T04:50:02.732Z,20.38
2022-08-05T04:51:03.002Z,20.38
2022-08-05T04:51:48.253Z,20.37
2022-08-05T04:52:48.258Z,20.38
2022-08-05T04:53:48.248Z,20.39
2022-08-05T04:54:49.469Z,20.42
2022-08-05T04:56:32.912Z,20.43
2022-08-05T04:56:48.275Z,20.47
2022-08-05T04:57:51.429Z,20.51
2022-08-05T04:58:48.268Z,20.53
2022-08-05T04:59:48.289Z,20.55
2022-08-05T05:00:50.613Z,20.60
2022-08-05T05:02:35.675Z,20.64
2022-08-05T05:02:48.296Z,20.66
2022-08-05T05:03:48.277Z,20.68
2022-08-05T05:04:50.512Z,20.70
2022-08-05T05:06:39.919Z,20.70
2022-08-05T05:06:49.348Z,20.67
2022-08-05T05:07:52.814Z,20.69
2022-08-05T05:08:49.926Z,20.69
2022-08-05T05:09:48.306Z,20.72
2022-08-05T05:10:56.256Z,20.75
2022-08-05T05:11:54.381Z,20.76
2022-08-05T05:12:48.293Z,20.78
2022-08-05T05:13:48.284Z,20.79
2022-08-05T05:14:50.740Z,20.78
2022-08-05T05:15:57.848Z,20.76
2022-08-05T05:16:48.285Z,20.76
2022-08-05T05:17:56.373Z,20.74
2022-08-05T05:19:02.759Z,20.75
2022-08-05T05:19:48.309Z,20.75
2022-08-05T05:20:48.298Z,20.73
2022-08-05T05:21:48.289Z,20.70
2022-08-05T05:22:48.291Z,20.68
2022-08-05T05:24:04.122Z,20.61
2022-08-05T05:24:58.147Z,20.59
2022-08-05T05:25:48.349Z,20.59
2022-08-05T05:26:48.326Z,20.59
2022-08-05T05:27:53.670Z,20.60
2022-08-05T05:28:48.303Z,20.63
2022-08-05T05:30:04.339Z,20.66
2022-08-05T05:30:49.770Z,20.66
2022-08-05T05:31:48.296Z,20.66
2022-08-05T05:32:48.328Z,20.67
2022-08-05T05:33:59.285Z,20.68
2022-08-05T05:34:48.333Z,20.67
2022-08-05T05:35:48.425Z,20.66
2022-08-05T05:36:48.481Z,20.62
2022-08-05T05:37:59.558Z,20.58
2022-08-05T05:38:48.306Z,20.56
2022-08-05T05:39:48.373Z,20.53
2022-08-05T05:40:51.277Z,20.55
2022-08-05T05:41:54.735Z,20.58
2022-08-05T05:42:48.314Z,20.58
2022-08-05T05:43:57.524Z,20.56
2022-08-05T05:44:48.320Z,20.55
2022-08-05T05:45:48.528Z,20.55
2022-08-05T05:46:48.328Z,20.55
2022-08-05T05:48:07.069Z,20.58
2022-08-05T05:48:49.068Z,20.62
2022-08-05T05:49:56.971Z,20.61
2022-08-05T05:50:48.333Z,20.57
2022-08-05T05:51:50.403Z,20.51
2022-08-05T05:52:48.350Z,20.47
2022-08-05T05:53:57.883Z,20.48
2022-08-05T05:54:50.456Z,20.45
2022-08-05T05:55:52.198Z,20.45
2022-08-05T05:56:48.337Z,20.48
2022-08-05T05:57:52.760Z,20.44
2022-08-05T05:58:48.359Z,20.43
2022-08-05T05:59:48.816Z,20.44
2022-08-05T06:00:48.336Z,20.45
2022-08-05T06:01:57.235Z,20.46
2022-08-05T06:02:48.374Z,20.47
2022-08-05T06:04:00.469Z,20.49
2022-08-05T06:04:49.251Z,20.47
2022-08-05T06:05:54.167Z,20.47
2022-08-05T06:06:49.036Z,20.52
2022-08-05T06:08:01.282Z,20.55
2022-08-05T06:08:49.285Z,20.59
2022-08-05T06:09:59.831Z,20.58
2022-08-05T06:10:52.416Z,20.55
2022-08-05T06:11:59.565Z,20.54
2022-08-05T06:12:48.386Z,20.51
2022-08-05T06:13:53.632Z,20.51
2022-08-05T06:14:48.361Z,20.54
2022-08-05T06:16:30.168Z,20.56
2022-08-05T06:16:48.353Z,20.55
2022-08-05T06:17:53.496Z,20.52
2022-08-05T06:18:48.359Z,20.51
2022-08-05T06:19:57.190Z,20.47
2022-08-05T06:20:48.382Z,20.44
2022-08-05T06:21:49.253Z,20.43
2022-08-05T06:22:48.373Z,20.42
2022-08-05T06:23:49.868Z,20.43
2022-08-05T06:24:48.855Z,20.40
2022-08-05T06:26:12.466Z,20.42
2022-08-05T06:26:52.114Z,20.41
2022-08-05T06:28:10.782Z,20.45
2022-08-05T06:28:48.386Z,20.48
2022-08-05T06:30:04.165Z,20.46
2022-08-05T06:30:48.379Z,20.47
2022-08-05T06:31:48.384Z,20.51
2022-08-05T06:32:48.397Z,20.53
2022-08-05T06:34:06.029Z,20.54
2022-08-05T06:34:48.377Z,20.55
2022-08-05T06:36:07.488Z,20.60
2022-08-05T06:36:57.844Z,20.64
2022-08-05T06:37:57.525Z,20.62
2022-08-05T06:38:48.444Z,20.63
2022-08-05T06:39:48.435Z,20.64
2022-08-05T06:40:48.408Z,20.64
2022-08-05T06:41:48.374Z,20.63
2022-08-05T06:42:48.412Z,20.66
2022-08-05T06:43:59.153Z,20.75
2022-08-05T06:44:49.145Z,20.84
2022-08-05T06:46:03.820Z,20.92
2022-08-05T06:46:51.131Z,21.01
2022-08-05T06:48:36.869Z,21.11
2022-08-05T06:48:56.279Z,21.22
2022-08-05T06:50:01.775Z,21.26
2022-08-05T06:50:49.963Z,21.31
2022-08-05T06:51:48.418Z,21.37
2022-08-05T06:53:03.579Z,21.44
2022-08-05T06:53:53.483Z,21.47
2022-08-05T06:54:52.030Z,21.50
2022-08-05T06:55:48.425Z,21.53
2022-08-05T06:56:54.701Z,21.56
2022-08-05T06:58:02.651Z,21.59
2022-08-05T06:58:48.412Z,21.61
2022-08-05T06:59:56.510Z,21.63
2022-08-05T07:00:48.473Z,21.66
2022-08-05T07:01:48.492Z,21.72
2022-08-05T07:02:48.495Z,21.80
2022-08-05T07:03:48.424Z,21.88
2022-08-05T07:04:48.429Z,21.90
2022-08-05T07:05:48.433Z,21.85
2022-08-05T07:06:50.462Z,21.82
2022-08-05T07:07:48.473Z,21.80
2022-08-05T07:08:51.848Z,21.83
2022-08-05T07:09:48.440Z,21.87
2022-08-05T07:10:52.989Z,21.93
2022-08-05T07:11:51.674Z,22.00
2022-08-05T07:12:48.949Z,22.10
2022-08-05T07:13:58.427Z,22.23
2022-08-05T07:14:48.439Z,22.36
2022-08-05T07:16:01.782Z,22.44
2022-08-05T07:17:56.597Z,22.52
2022-08-05T07:18:02.349Z,22.56
2022-08-05T07:18:48.461Z,22.60
2022-08-05T07:20:32.098Z,22.68
2022-08-05T07:20:48.461Z,22.72
2022-08-05T07:22:00.643Z,22.71
2022-08-05T07:22:48.505Z,22.75
2022-08-05T07:23:49.959Z,22.84
2022-08-05T07:24:52.691Z,22.94
2022-08-05T07:25:56.461Z,22.99
2022-08-05T07:26:48.462Z,23.01
2022-08-05T07:27:57.363Z,23.01
2022-08-05T07:28:48.478Z,22.99
2022-08-05T07:30:27.579Z,22.96
2022-08-05T07:30:50.411Z,22.90
2022-08-05T07:31:54.494Z,22.88
2022-08-05T07:32:50.847Z,22.87
2022-08-05T07:33:48.498Z,22.87
2022-08-05T07:34:48.472Z,22.86
2022-08-05T07:36:02.515Z,22.89
2022-08-05T07:36:48.469Z,22.98
2022-08-05T07:37:48.474Z,23.10
2022-08-05T07:38:48.893Z,23.24
2022-08-05T07:40:04.464Z,23.39
2022-08-05T07:40:48.564Z,23.49
2022-08-05T07:42:14.720Z,23.55
2022-08-05T07:42:48.512Z,23.51
2022-08-05T07:43:48.469Z,23.52
2022-08-05T07:44:48.467Z,23.48
2022-08-05T07:45:57.083Z,23.54
2022-08-05T07:46:49.774Z,23.60
2022-08-05T07:47:48.485Z,23.59
2022-08-05T07:49:01.679Z,23.60
2022-08-05T07:49:54.130Z,23.59
2022-08-05T07:50:48.484Z,23.58
2022-08-05T07:51:54.694Z,23.58
2022-08-05T07:52:48.522Z,23.60
2022-08-05T07:53:50.310Z,23.59
2022-08-05T07:54:49.298Z,23.60
2022-08-05T07:56:06.596Z,23.68
2022-08-05T07:57:02.613Z,23.70
2022-08-05T07:58:01.982Z,23.74
2022-08-05T07:58:58.996Z,23.72
2022-08-05T07:59:48.878Z,23.79
2022-08-05T08:00:48.540Z,23.89
2022-08-05T08:01:52.292Z,24.01
2022-08-05T08:03:13.698Z,24.16
2022-08-05T08:03:48.508Z,24.24
2022-08-05T08:04:49.524Z,24.26
2022-08-05T08:05:49.574Z,24.25
2022-08-05T08:06:48.508Z,24.26
2022-08-05T08:08:00.101Z,24.29
2022-08-05T08:08:48.613Z,24.26
2022-08-05T08:09:48.672Z,24.25
2022-08-05T08:10:49.120Z,24.22
2022-08-05T08:11:53.622Z,24.21
2022-08-05T08:12:49.705Z,24.21
2022-08-05T08:14:00.406Z,24.17
2022-08-05T08:14:48.717Z,24.10
2022-08-05T08:16:35.252Z,24.08
2022-08-05T08:16:50.805Z,24.01
2022-08-05T08:17:52.479Z,23.96
2022-08-05T08:18:50.166Z,23.94
2022-08-05T08:20:10.080Z,23.90
2022-08-05T08:21:02.872Z,23.92
2022-08-05T08:21:48.651Z,23.94
2022-08-05T08:22:48.647Z,23.91
2022-08-05T08:24:01.653Z,23.94
2022-08-05T08:26:00.870Z,23.93
2022-08-05T08:26:30.111Z,23.97
2022-08-05T08:27:35.776Z,23.91
2022-08-05T08:28:36.482Z,23.87
2022-08-05T08:30:05.897Z,23.86
2022-08-05T08:30:37.706Z,23.76
2022-08-05T08:31:29.480Z,23.71
2022-08-05T08:32:29.449Z,23.69
2022-08-05T08:33:29.439Z,23.67
2022-08-05T08:34:30.658Z,23.70
2022-08-05T08:35:35.055Z,23.76
2022-08-05T08:36:49.931Z,23.83
2022-08-05T08:37:29.498Z,23.90
2022-08-05T08:38:35.381Z,24.01
2022-08-05T08:39:29.495Z,24.09
2022-08-05T08:40:29.472Z,24.12
2022-08-05T08:41:50.921Z,24.09
2022-08-05T08:42:34.431Z,24.13
2022-08-05T08:45:17.052Z,24.02
2022-08-05T08:45:24.433Z,23.97
2022-08-05T08:45:30.406Z,23.89
2022-08-05T08:46:29.467Z,23.84
2022-08-05T08:48:06.980Z,23.86
2022-08-05T08:49:00.987Z,23.87
2022-08-05T08:50:05.666Z,23.90
2022-08-05T08:50:52.878Z,23.86
2022-08-05T08:52:03.695Z,23.82
2022-08-05T08:52:29.887Z,23.80
2022-08-05T08:53:29.478Z,23.85
2022-08-05T08:54:29.491Z,23.85
2022-08-05T08:55:31.991Z,23.93
2022-08-05T08:56:29.485Z,24.08
2022-08-05T08:57:46.451Z,24.24
2022-08-05T08:58:43.192Z,24.45
2022-08-05T08:59:33.543Z,24.64
2022-08-05T09:00:29.515Z,24.91
2022-08-05T09:01:29.697Z,25.08
2022-08-05T09:02:29.639Z,25.16
2022-08-05T09:03:40.474Z,25.28
2022-08-05T09:04:30.342Z,25.37
2022-08-05T09:05:38.886Z,25.42
2022-08-05T09:06:30.376Z,25.46
2022-08-05T09:07:39.469Z,25.38
2022-08-05T09:08:30.239Z,25.31
2022-08-05T09:09:35.562Z,25.24
2022-08-05T09:10:29.812Z,25.21
2022-08-05T09:11:52.782Z,25.05
2022-08-05T09:12:29.682Z,24.93
2022-08-05T09:13:31.414Z,24.79
2022-08-05T09:14:56.576Z,24.68
2022-08-05T09:15:30.451Z,24.63
2022-08-05T09:16:29.662Z,24.62
2022-08-05T09:17:41.265Z,24.63
2022-08-05T09:18:29.686Z,24.68
2022-08-05T09:19:36.336Z,24.69
2022-08-05T09:20:37.736Z,24.69
2022-08-05T09:22:17.784Z,24.73
2022-08-05T09:22:31.806Z,24.81
2022-08-05T09:23:37.438Z,24.93
2022-08-05T09:24:29.667Z,24.98
2022-08-05T09:26:01.166Z,25.03
2022-08-05T09:26:30.226Z,24.97
2022-08-05T09:28:04.308Z,24.82
2022-08-05T09:28:32.296Z,24.70
2022-08-05T09:29:30.919Z,24.65
2022-08-05T09:30:29.771Z,24.61
2022-08-05T09:32:40.031Z,24.61
2022-08-05T09:32:46.537Z,24.59
2022-08-05T09:33:35.206Z,24.58
2022-08-05T09:34:29.792Z,24.50
2022-08-05T09:35:29.775Z,24.51
2022-08-05T09:36:33.248Z,24.56
2022-08-05T09:38:17.182Z,24.63
2022-08-05T09:38:29.791Z,24.74
2022-08-05T09:39:45.300Z,24.80
2022-08-05T09:40:29.874Z,24.89
2022-08-05T09:41:32.822Z,25.00
2022-08-05T09:42:30.096Z,25.09
2022-08-05T09:43:41.366Z,25.15
2022-08-05T09:44:29.774Z,25.19
2022-08-05T09:46:07.339Z,25.24
2022-08-05T09:46:29.779Z,25.27
2022-08-05T09:47:48.419Z,25.34
2022-08-05T09:48:30.121Z,25.39
2022-08-05T09:49:40.336Z,25.32
2022-08-05T09:50:38.156Z,25.24
2022-08-05T09:51:29.800Z,25.19
2022-08-05T09:52:29.807Z,25.16
2022-08-05T09:53:54.413Z,25.12
2022-08-05T09:54:29.807Z,25.08
2022-08-05T09:55:56.369Z,25.06
2022-08-05T09:56:29.827Z,25.12
2022-08-05T09:57:29.839Z,25.23
2022-08-05T09:58:29.810Z,25.30
2022-08-05T09:59:34.895Z,25.29
2022-08-05T10:00:30.621Z,25.28
2022-08-05T10:01:32.383Z,25.28
2022-08-05T10:02:29.880Z,25.29
2022-08-05T10:03:38.662Z,25.31
2022-08-05T10:04:29.818Z,25.33
2022-08-05T10:05:32.909Z,25.31
2022-08-05T10:06:30.957Z,25.27
2022-08-05T10:08:10.975Z,25.24
2022-08-05T10:08:36.434Z,25.18
2022-08-05T10:09:30.219Z,25.15
2022-08-05T10:10:32.596Z,25.14
2022-08-05T10:11:31.340Z,25.08
2022-08-05T10:12:33.885Z,25.07
2022-08-05T10:13:31.543Z,24.99
2022-08-05T10:14:30.251Z,24.94
2022-08-05T10:15:29.836Z,24.90
2022-08-05T10:16:29.844Z,24.89
2022-08-05T10:17:37.583Z,24.91
2022-08-05T10:18:29.852Z,24.92
2022-08-05T10:20:03.275Z,24.96
2022-08-05T10:20:29.859Z,25.02
2022-08-05T10:21:35.393Z,25.13
2022-08-05T10:22:34.808Z,25.18
2022-08-05T10:23:56.113Z,25.27
2022-08-05T10:24:29.851Z,25.32
2022-08-05T10:25:29.857Z,25.34
2022-08-05T10:26:32.352Z,25.37
2022-08-05T10:28:09.464Z,25.43
2022-08-05T10:28:30.494Z,25.45
2022-08-05T10:30:06.736Z,25.42
2022-08-05T10:32:47.785Z,25.31
2022-08-05T10:32:51.846Z,25.22
2022-08-05T10:32:55.080Z,25.15
2022-08-05T10:33:29.873Z,25.06
2022-08-05T10:34:30.103Z,24.90
2022-08-05T10:35:33.566Z,24.77
2022-08-05T10:36:29.942Z,24.65
2022-08-05T10:37:44.444Z,24.53
2022-08-05T10:38:33.290Z,24.42
2022-08-05T10:40:03.047Z,24.35
2022-08-05T10:40:29.999Z,24.27
2022-08-05T10:41:45.363Z,24.21
2022-08-05T10:42:33.317Z,24.17
2022-08-05T10:43:35.619Z,24.15
2022-08-05T10:44:29.992Z,24.12
2022-08-05T10:45:39.800Z,24.13
2022-08-05T10:46:29.947Z,24.14
2022-08-05T10:47:31.409Z,24.14
2022-08-05T10:48:34.282Z,24.10
2022-08-05T10:49:33.264Z,24.07
2022-08-05T10:50:36.676Z,23.96
2022-08-05T10:51:29.994Z,23.92
2022-08-05T10:52:29.984Z,23.87
2022-08-05T10:53:29.996Z,23.82
2022-08-05T10:54:32.631Z,23.78
2022-08-05T10:55:30.013Z,23.73
2022-08-05T10:56:29.988Z,23.65
2022-08-05T10:57:34.033Z,23.59
2022-08-05T10:58:35.916Z,23.51
2022-08-05T11:00:02.988Z,23.47
2022-08-05T11:00:29.982Z,23.39
2022-08-05T11:01:54.749Z,23.30
2022-08-05T11:02:38.158Z,23.24
2022-08-05T11:03:30.066Z,23.22
2022-08-05T11:04:30.898Z,23.20
2022-08-05T11:05:31.670Z,23.19
2022-08-05T11:06:30.788Z,23.20
2022-08-05T11:07:33.140Z,23.24
2022-08-05T11:08:38.138Z,23.25
2022-08-05T11:09:39.385Z,23.29
2022-08-05T11:10:30.052Z,23.31
2022-08-05T11:11:33.061Z,23.34
2022-08-05T11:12:30.080Z,23.33
2022-08-05T11:13:30.097Z,23.33
2022-08-05T11:14:57.851Z,23.30
2022-08-05T11:16:00.277Z,23.27
2022-08-05T11:16:33.688Z,23.25
2022-08-05T11:17:58.769Z,23.25
2022-08-05T11:18:32.538Z,23.26
2022-08-05T11:20:11.016Z,23.29
2022-08-05T11:20:30.059Z,23.31
2022-08-05T11:21:30.074Z,23.30
2022-08-05T11:22:30.089Z,23.27
2022-08-05T11:24:02.302Z,23.21
2022-08-05T11:24:31.076Z,23.13
2022-08-05T11:26:04.107Z,23.03
2022-08-05T11:26:32.628Z,22.98
2022-08-05T11:27:50.075Z,22.97
2022-08-05T11:28:30.113Z,23.01
2022-08-05T11:29:30.069Z,23.10
2022-08-05T11:30:30.082Z,23.24
2022-08-05T11:31:56.648Z,23.34
2022-08-05T11:32:30.136Z,23.38
2022-08-05T11:33:34.741Z,23.43
2022-08-05T11:34:30.082Z,23.45
2022-08-05T11:35:30.111Z,23.41
2022-08-05T11:36:34.440Z,23.38
2022-08-05T11:38:31.028Z,23.37
2022-08-05T11:38:37.182Z,23.35
2022-08-05T11:39:30.131Z,23.29
2022-08-05T11:40:30.082Z,23.31
2022-08-05T11:41:54.625Z,23.37
2022-08-05T11:42:30.100Z,23.52
2022-08-05T11:44:04.491Z,23.65
2022-08-05T11:44:52.844Z,23.76
2022-08-05T11:46:27.042Z,23.88
2022-08-05T11:46:33.455Z,24.00
2022-08-05T11:47:48.600Z,24.13
2022-08-05T11:48:30.106Z,24.30
2022-08-05T11:49:33.880Z,24.60
2022-08-05T11:50:30.120Z,24.94
2022-08-05T11:51:44.207Z,25.42
2022-08-05T11:52:31.134Z,25.94
2022-08-05T11:53:30.093Z,26.57
2022-08-05T11:54:33.795Z,27.05
2022-08-05T11:55:32.290Z,27.36
2022-08-05T11:56:40.574Z,27.45
2022-08-05T11:57:30.714Z,27.40
2022-08-05T11:58:30.157Z,27.31
2022-08-05T11:59:30.098Z,27.26
2022-08-05T12:00:30.356Z,27.21
2022-08-05T12:01:30.112Z,27.08
2022-08-05T12:02:32.549Z,27.03
2022-08-05T12:03:31.950Z,27.02
2022-08-05T12:04:30.130Z,27.02
2022-08-05T12:05:36.491Z,27.06
2022-08-05T12:06:30.125Z,27.14
2022-08-05T12:08:07.815Z,27.13
2022-08-05T12:08:31.620Z,27.18
2022-08-05T12:09:52.696Z,27.38
2022-08-05T12:10:43.828Z,27.56
2022-08-05T12:11:40.220Z,27.68
2022-08-05T12:12:30.178Z,27.72
2022-08-05T12:13:48.802Z,27.60
2022-08-05T12:14:30.160Z,27.52
2022-08-05T12:15:37.880Z,27.47
2022-08-05T12:16:30.175Z,27.40
2022-08-05T12:18:04.215Z,27.25
2022-08-05T12:18:33.064Z,27.15
2022-08-05T12:20:17.159Z,26.96
2022-08-05T12:20:33.398Z,26.74
2022-08-05T12:21:30.547Z,26.32
2022-08-05T12:22:30.174Z,25.96
2022-08-05T12:23:30.176Z,25.68
2022-08-05T12:24:30.215Z,25.49
2022-08-05T12:25:30.192Z,25.30
2022-08-05T12:26:30.178Z,25.16
2022-08-05T12:27:32.947Z,25.07
2022-08-05T12:28:31.034Z,25.00
2022-08-05T12:29:38.013Z,25.00
2022-08-05T12:30:32.313Z,25.02
2022-08-05T12:31:40.662Z,25.02
2022-08-05T12:32:30.194Z,25.02
2022-08-05T12:33:36.565Z,25.02
2022-08-05T12:34:30.178Z,25.00
2022-08-05T12:35:39.505Z,24.96
2022-08-05T12:36:30.220Z,24.89
2022-08-05T12:37:30.311Z,24.79
2022-08-05T12:38:31.575Z,24.70
2022-08-05T12:39:34.516Z,24.59
2022-08-05T12:40:30.195Z,24.50
2022-08-05T12:41:34.204Z,24.41
2022-08-05T12:42:30.240Z,24.35
2022-08-05T12:43:32.142Z,24.28
2022-08-05T12:44:34.204Z,24.27
2022-08-05T12:45:36.971Z,24.26
2022-08-05T12:46:31.390Z,24.27
2022-08-05T12:47:30.388Z,24.30
2022-08-05T12:48:32.954Z,24.33
2022-08-05T12:50:03.895Z,24.36
2022-08-05T12:50:30.997Z,24.37
2022-08-05T12:52:12.755Z,24.40
2022-08-05T12:52:37.750Z,24.47
2022-08-05T12:53:37.152Z,24.57